sensor_id;sensor_type;location;lat;lon;timestamp;pressure;altitude;pressure_sealevel;temperature;humidity
71770;BME280;66386;52.122;5.420;2024-02-26T00:00:27;100070.03;;;4.49;100.00
71770;BME280;66386;52.122;5.420;2024-02-26T00:02:55;100076.88;;;4.47;100.00
71770;BME280;66386;52.122;5.420;2024-02-26T00:05:22;100083.69;;;4.45;100.00
71770;BME280;66386;52.122;5.420;2024-02-26T00:07:48;100086.22;;;4.45;100.00
71770;BME280;66386;52.122;5.420;2024-02-26T00:10:15;100082.91;;;4.43;100.00
71770;BME280;66386;52.122;5.420;2024-02-26T00:12:41;100085.50;;;4.40;100.00
71770;BME280;66386;52.122;5.420;2024-02-26T00:15:09;100089.00;;;4.35;100.00
71770;BME280;66386;52.122;5.420;2024-02-26T00:17:36;100092.44;;;4.33;100.00
71770;BME280;66386;52.122;5.420;2024-02-26T00:20:03;100095.84;;;4.32;100.00
71770;BME280;66386;52.122;5.420;2024-02-26T00:22:35;100087.44;;;4.30;100.00
71770;BME280;66386;52.122;5.420;2024-02-26T00:25:02;100102.72;;;4.28;100.00
71770;BME280;66386;52.122;5.420;2024-02-26T00:27:28;100091.78;;;4.25;100.00
71770;BME280;66386;52.122;5.420;2024-02-26T00:29:55;100103.66;;;4.24;100.00
71770;BME280;66386;52.122;5.420;2024-02-26T00:32:21;100104.56;;;4.22;100.00
71770;BME280;66386;52.122;5.420;2024-02-26T00:34:48;100096.13;;;4.19;100.00
71770;BME280;66386;52.122;5.420;2024-02-26T00:37:14;100095.31;;;4.17;100.00
71770;BME280;66386;52.122;5.420;2024-02-26T00:39:41;100089.41;;;4.17;100.00
71770;BME280;66386;52.122;5.420;2024-02-26T00:42:07;100087.72;;;4.16;100.00
71770;BME280;66386;52.122;5.420;2024-02-26T00:44:34;100091.19;;;4.13;100.00
71770;BME280;66386;52.122;5.420;2024-02-26T00:47:01;100088.69;;;4.12;100.00
71770;BME280;66386;52.122;5.420;2024-02-26T00:49:28;100101.41;;;4.10;100.00
71770;BME280;66386;52.122;5.420;2024-02-26T00:51:55;100094.75;;;4.06;100.00
71770;BME280;66386;52.122;5.420;2024-02-26T00:54:22;100091.38;;;4.04;100.00
71770;BME280;66386;52.122;5.420;2024-02-26T00:56:48;100097.38;;;4.03;100.00
71770;BME280;66386;52.122;5.420;2024-02-26T00:59:15;100099.09;;;4.01;100.00
71770;BME280;66386;52.122;5.420;2024-02-26T01:01:41;100098.28;;;3.99;100.00
71770;BME280;66386;52.122;5.420;2024-02-26T01:04:08;100100.84;;;3.99;100.00
71770;BME280;66386;52.122;5.420;2024-02-26T01:06:35;100099.94;;;4.00;100.00
71770;BME280;66386;52.122;5.420;2024-02-26T01:09:01;100094.84;;;4.00;100.00
71770;BME280;66386;52.122;5.420;2024-02-26T01:11:28;100097.41;;;4.00;100.00
71770;BME280;66386;52.122;5.420;2024-02-26T01:13:55;100091.50;;;3.99;100.00
71770;BME280;66386;52.122;5.420;2024-02-26T01:16:23;100094.84;;;4.00;100.00
71770;BME280;66386;52.122;5.420;2024-02-26T01:18:50;100092.31;;;4.00;100.00
71770;BME280;66386;52.122;5.420;2024-02-26T01:21:16;100083.03;;;3.99;100.00
71770;BME280;66386;52.122;5.420;2024-02-26T01:23:43;100088.91;;;4.01;100.00
71770;BME280;66386;52.122;5.420;2024-02-26T01:26:10;100096.47;;;4.04;100.00
71770;BME280;66386;52.122;5.420;2024-02-26T01:28:37;100089.72;;;4.03;100.00
71770;BME280;66386;52.122;5.420;2024-02-26T01:31:03;100087.97;;;4.05;100.00
71770;BME280;66386;52.122;5.420;2024-02-26T01:33:33;100084.50;;;4.09;100.00
71770;BME280;66386;52.122;5.420;2024-02-26T01:36:00;100079.41;;;4.09;100.00
71770;BME280;66386;52.122;5.420;2024-02-26T01:38:27;100082.75;;;4.11;100.00
71770;BME280;66386;52.122;5.420;2024-02-26T01:40:54;100074.28;;;4.11;100.00
71770;BME280;66386;52.122;5.420;2024-02-26T01:43:20;100075.97;;;4.12;100.00
71770;BME280;66386;52.122;5.420;2024-02-26T01:45:47;100076.84;;;4.11;100.00
71770;BME280;66386;52.122;5.420;2024-02-26T01:48:13;100084.47;;;4.11;100.00
71770;BME280;66386;52.122;5.420;2024-02-26T01:50:40;100087.78;;;4.13;100.00
71770;BME280;66386;52.122;5.420;2024-02-26T01:53:07;100086.97;;;4.12;100.00
71770;BME280;66386;52.122;5.420;2024-02-26T01:55:35;100090.34;;;4.13;100.00
71770;BME280;66386;52.122;5.420;2024-02-26T01:58:02;100095.41;;;4.14;100.00
71770;BME280;66386;52.122;5.420;2024-02-26T02:00:28;100094.56;;;4.14;100.00
71770;BME280;66386;52.122;5.420;2024-02-26T02:02:55;100096.22;;;4.16;100.00
71770;BME280;66386;52.122;5.420;2024-02-26T02:05:22;100094.47;;;4.18;100.00
71770;BME280;66386;52.122;5.420;2024-02-26T02:07:48;100094.47;;;4.18;100.00
71770;BME280;66386;52.122;5.420;2024-02-26T02:10:16;100108.00;;;4.21;100.00
71770;BME280;66386;52.122;5.420;2024-02-26T02:12:44;100102.91;;;4.21;100.00
71770;BME280;66386;52.122;5.420;2024-02-26T02:15:11;100096.94;;;4.22;100.00
71770;BME280;66386;52.122;5.420;2024-02-26T02:17:37;100106.22;;;4.24;100.00
71770;BME280;66386;52.122;5.420;2024-02-26T02:20:08;100109.53;;;4.26;100.00
71770;BME280;66386;52.122;5.420;2024-02-26T02:22:35;100109.53;;;4.26;100.00
71770;BME280;66386;52.122;5.420;2024-02-26T02:25:01;100111.22;;;4.27;100.00
71770;BME280;66386;52.122;5.420;2024-02-26T02:27:28;100112.03;;;4.28;100.00
71770;BME280;66386;52.122;5.420;2024-02-26T02:29:55;100117.94;;;4.30;100.00
71770;BME280;66386;52.122;5.420;2024-02-26T02:32:24;100116.25;;;4.30;100.00
71770;BME280;66386;52.122;5.420;2024-02-26T02:34:51;100123.88;;;4.30;100.00
71770;BME280;66386;52.122;5.420;2024-02-26T02:37:18;100122.19;;;4.31;100.00
71770;BME280;66386;52.122;5.420;2024-02-26T02:39:44;100129.81;;;4.31;100.00
71770;BME280;66386;52.122;5.420;2024-02-26T02:42:11;100132.31;;;4.32;100.00
71770;BME280;66386;52.122;5.420;2024-02-26T02:44:38;100131.44;;;4.33;100.00
71770;BME280;66386;52.122;5.420;2024-02-26T02:47:05;100136.50;;;4.33;100.00
71770;BME280;66386;52.122;5.420;2024-02-26T02:49:31;100146.66;;;4.35;100.00
71770;BME280;66386;52.122;5.420;2024-02-26T02:51:58;100139.03;;;4.35;100.00
71770;BME280;66386;52.122;5.420;2024-02-26T02:54:24;100139.03;;;4.35;100.00
71770;BME280;66386;52.122;5.420;2024-02-26T02:56:51;100139.03;;;4.35;100.00
71770;BME280;66386;52.122;5.420;2024-02-26T02:59:18;100143.25;;;4.36;100.00
71770;BME280;66386;52.122;5.420;2024-02-26T03:01:44;100144.97;;;4.35;100.00
71770;BME280;66386;52.122;5.420;2024-02-26T03:04:11;100141.53;;;4.36;100.00
71770;BME280;66386;52.122;5.420;2024-02-26T03:06:37;100150.84;;;4.37;100.00
71770;BME280;66386;52.122;5.420;2024-02-26T03:09:04;100155.94;;;4.37;100.00
71770;BME280;66386;52.122;5.420;2024-02-26T03:11:30;100162.75;;;4.37;100.00
71770;BME280;66386;52.122;5.420;2024-02-26T03:13:57;100169.50;;;4.36;100.00
71770;BME280;66386;52.122;5.420;2024-02-26T03:16:23;100174.59;;;4.36;100.00
71770;BME280;66386;52.122;5.420;2024-02-26T03:18:50;100182.22;;;4.38;100.00
71770;BME280;66386;52.122;5.420;2024-02-26T03:21:17;100184.78;;;4.38;100.00
71770;BME280;66386;52.122;5.420;2024-02-26T03:23:44;100183.13;;;4.35;100.00
71770;BME280;66386;52.122;5.420;2024-02-26T03:26:11;100184.78;;;4.36;100.00
71770;BME280;66386;52.122;5.420;2024-02-26T03:28:40;100176.34;;;4.34;100.00
71770;BME280;66386;52.122;5.420;2024-02-26T03:31:06;100184.81;;;4.35;100.00
71770;BME280;66386;52.122;5.420;2024-02-26T03:33:34;100183.16;;;4.34;100.00
71770;BME280;66386;52.122;5.420;2024-02-26T03:36:00;100189.94;;;4.33;100.00
71770;BME280;66386;52.122;5.420;2024-02-26T03:38:28;100194.22;;;4.31;100.00
71770;BME280;66386;52.122;5.420;2024-02-26T03:40:55;100197.59;;;4.32;100.00
71770;BME280;66386;52.122;5.420;2024-02-26T03:43:21;100186.63;;;4.30;100.00
71770;BME280;66386;52.122;5.420;2024-02-26T03:45:48;100195.94;;;4.31;100.00
71770;BME280;66386;52.122;5.420;2024-02-26T03:48:14;100193.44;;;4.29;100.00
71770;BME280;66386;52.122;5.420;2024-02-26T03:50:41;100192.59;;;4.29;100.00
71770;BME280;66386;52.122;5.420;2024-02-26T03:53:08;100196.00;;;4.28;100.00
71770;BME280;66386;52.122;5.420;2024-02-26T03:55:39;100196.00;;;4.28;100.00
71770;BME280;66386;52.122;5.420;2024-02-26T03:58:08;100196.88;;;4.27;100.00
71770;BME280;66386;52.122;5.420;2024-02-26T04:00:36;100197.72;;;4.27;100.00
71770;BME280;66386;52.122;5.420;2024-02-26T04:03:03;100196.88;;;4.27;100.00
71770;BME280;66386;52.122;5.420;2024-02-26T04:05:30;100196.03;;;4.26;100.00
71770;BME280;66386;52.122;5.420;2024-02-26T04:07:56;100191.81;;;4.25;100.00
71770;BME280;66386;52.122;5.420;2024-02-26T04:10:23;100203.66;;;4.26;100.00
71770;BME280;66386;52.122;5.420;2024-02-26T04:12:49;100204.50;;;4.27;100.00
71770;BME280;66386;52.122;5.420;2024-02-26T04:15:16;100202.00;;;4.25;100.00
71770;BME280;66386;52.122;5.420;2024-02-26T04:17:43;100207.91;;;4.26;100.00
71770;BME280;66386;52.122;5.420;2024-02-26T04:20:14;100214.69;;;4.27;100.00
71770;BME280;66386;52.122;5.420;2024-02-26T04:22:41;100208.75;;;4.26;100.00
71770;BME280;66386;52.122;5.420;2024-02-26T04:25:08;100215.53;;;4.26;100.00
71770;BME280;66386;52.122;5.420;2024-02-26T04:27:35;100223.16;;;4.27;100.00
71770;BME280;66386;52.122;5.420;2024-02-26T04:30:01;100222.31;;;4.27;100.00
71770;BME280;66386;52.122;5.420;2024-02-26T04:32:29;100209.59;;;4.27;100.00
71770;BME280;66386;52.122;5.420;2024-02-26T04:34:56;100221.44;;;4.28;100.00
71770;BME280;66386;52.122;5.420;2024-02-26T04:37:22;100226.50;;;4.29;100.00
71770;BME280;66386;52.122;5.420;2024-02-26T04:39:49;100233.28;;;4.29;100.00
71770;BME280;66386;52.122;5.420;2024-02-26T04:42:16;100218.88;;;4.29;100.00
71770;BME280;66386;52.122;5.420;2024-02-26T04:44:43;100232.47;;;4.28;100.00
71770;BME280;66386;52.122;5.420;2024-02-26T04:47:10;100230.75;;;4.29;100.00
71770;BME280;66386;52.122;5.420;2024-02-26T04:49:37;100230.72;;;4.30;100.00
71770;BME280;66386;52.122;5.420;2024-02-26T04:52:04;100235.75;;;4.32;100.00
71770;BME280;66386;52.122;5.420;2024-02-26T04:54:30;100235.72;;;4.33;100.00
71770;BME280;66386;52.122;5.420;2024-02-26T04:56:57;100240.00;;;4.33;100.00
71770;BME280;66386;52.122;5.420;2024-02-26T04:59:23;100236.59;;;4.34;100.00
71770;BME280;66386;52.122;5.420;2024-02-26T05:01:50;100236.59;;;4.34;100.00
71770;BME280;66386;52.122;5.420;2024-02-26T05:04:18;100237.41;;;4.34;100.00
71770;BME280;66386;52.122;5.420;2024-02-26T05:06:45;100250.09;;;4.36;100.00
71770;BME280;66386;52.122;5.420;2024-02-26T05:09:11;100248.41;;;4.35;100.00
71770;BME280;66386;52.122;5.420;2024-02-26T05:11:38;100249.28;;;4.35;100.00
71770;BME280;66386;52.122;5.420;2024-02-26T05:14:08;100250.06;;;4.37;100.00
71770;BME280;66386;52.122;5.420;2024-02-26T05:16:35;100250.94;;;4.38;100.00
71770;BME280;66386;52.122;5.420;2024-02-26T05:19:01;100246.69;;;4.37;100.00
71770;BME280;66386;52.122;5.420;2024-02-26T05:21:29;100243.28;;;4.38;100.00
71770;BME280;66386;52.122;5.420;2024-02-26T05:23:55;100253.47;;;4.38;100.00
71770;BME280;66386;52.122;5.420;2024-02-26T05:26:22;100252.56;;;4.39;100.00
71770;BME280;66386;52.122;5.420;2024-02-26T05:28:49;100253.44;;;4.40;100.00
71770;BME280;66386;52.122;5.420;2024-02-26T05:31:16;100246.63;;;4.40;100.00
71770;BME280;66386;52.122;5.420;2024-02-26T05:33:44;100248.34;;;4.40;100.00
71770;BME280;66386;52.122;5.420;2024-02-26T05:36:17;100258.50;;;4.41;100.00
71770;BME280;66386;52.122;5.420;2024-02-26T05:38:44;100254.22;;;4.42;100.00
71770;BME280;66386;52.122;5.420;2024-02-26T05:41:15;100254.25;;;4.40;100.00
71770;BME280;66386;52.122;5.420;2024-02-26T05:43:42;100254.25;;;4.40;100.00
71770;BME280;66386;52.122;5.420;2024-02-26T05:46:08;100259.31;;;4.42;100.00
71770;BME280;66386;52.122;5.420;2024-02-26T05:48:35;100277.13;;;4.42;100.00
71770;BME280;66386;52.122;5.420;2024-02-26T05:51:02;100272.06;;;4.40;100.00
71770;BME280;66386;52.122;5.420;2024-02-26T05:53:29;100280.56;;;4.39;100.00
71770;BME280;66386;52.122;5.420;2024-02-26T05:55:55;100281.47;;;4.38;100.00
71770;BME280;66386;52.122;5.420;2024-02-26T05:58:22;100276.38;;;4.38;100.00
71770;BME280;66386;52.122;5.420;2024-02-26T06:00:48;100285.69;;;4.37;100.00
71770;BME280;66386;52.122;5.420;2024-02-26T06:03:15;100282.28;;;4.39;100.00
71770;BME280;66386;52.122;5.420;2024-02-26T06:05:42;100290.75;;;4.39;100.00
71770;BME280;66386;52.122;5.420;2024-02-26T06:08:09;100299.22;;;4.40;100.00
71770;BME280;66386;52.122;5.420;2024-02-26T06:10:36;100286.50;;;4.40;100.00
71770;BME280;66386;52.122;5.420;2024-02-26T06:13:02;100291.59;;;4.40;100.00
71770;BME280;66386;52.122;5.420;2024-02-26T06:15:29;100291.59;;;4.40;100.00
71770;BME280;66386;52.122;5.420;2024-02-26T06:17:55;100295.78;;;4.41;100.00
71770;BME280;66386;52.122;5.420;2024-02-26T06:20:22;100296.69;;;4.40;100.00
71770;BME280;66386;52.122;5.420;2024-02-26T06:22:48;100305.97;;;4.41;100.00
71770;BME280;66386;52.122;5.420;2024-02-26T06:25:15;100313.59;;;4.41;100.00
71770;BME280;66386;52.122;5.420;2024-02-26T06:27:42;100313.56;;;4.42;100.00
71770;BME280;66386;52.122;5.420;2024-02-26T06:30:09;100302.56;;;4.42;100.00
71770;BME280;66386;52.122;5.420;2024-02-26T06:32:37;100312.72;;;4.43;100.00
71770;BME280;66386;52.122;5.420;2024-02-26T06:35:04;100315.22;;;4.45;100.00
71770;BME280;66386;52.122;5.420;2024-02-26T06:37:36;100312.69;;;4.45;100.00
71770;BME280;66386;52.122;5.420;2024-02-26T06:40:03;100320.31;;;4.45;100.00
71770;BME280;66386;52.122;5.420;2024-02-26T06:42:30;100319.50;;;4.44;100.00
71770;BME280;66386;52.122;5.420;2024-02-26T06:44:57;100332.22;;;4.44;100.00
71770;BME280;66386;52.122;5.420;2024-02-26T06:47:24;100333.03;;;4.45;100.00
71770;BME280;66386;52.122;5.420;2024-02-26T06:49:52;100340.69;;;4.45;100.00
71770;BME280;66386;52.122;5.420;2024-02-26T06:52:18;100346.59;;;4.45;100.00
71770;BME280;66386;52.122;5.420;2024-02-26T06:54:45;100355.88;;;4.48;100.00
71770;BME280;66386;52.122;5.420;2024-02-26T06:57:13;100349.06;;;4.50;100.00
71770;BME280;66386;52.122;5.420;2024-02-26T06:59:40;100343.09;;;4.51;100.00
71770;BME280;66386;52.122;5.420;2024-02-26T07:02:07;100348.19;;;4.51;100.00
71770;BME280;66386;52.122;5.420;2024-02-26T07:04:34;100355.81;;;4.51;100.00
71770;BME280;66386;52.122;5.420;2024-02-26T07:07:01;100354.97;;;4.52;100.00
71770;BME280;66386;52.122;5.420;2024-02-26T07:09:27;100359.22;;;4.51;100.00
71770;BME280;66386;52.122;5.420;2024-02-26T07:11:54;100366.00;;;4.51;100.00
71770;BME280;66386;52.122;5.420;2024-02-26T07:14:23;100365.94;;;4.54;100.00
71770;BME280;66386;52.122;5.420;2024-02-26T07:16:51;100375.28;;;4.53;100.00
71770;BME280;66386;52.122;5.420;2024-02-26T07:19:17;100367.63;;;4.55;100.00
71770;BME280;66386;52.122;5.420;2024-02-26T07:21:44;100369.34;;;4.54;100.00
71770;BME280;66386;52.122;5.420;2024-02-26T07:24:10;100387.09;;;4.58;100.00
71770;BME280;66386;52.122;5.420;2024-02-26T07:26:37;100383.72;;;4.57;100.00
71770;BME280;66386;52.122;5.420;2024-02-26T07:29:04;100387.91;;;4.58;100.00
71770;BME280;66386;52.122;5.420;2024-02-26T07:31:32;100387.06;;;4.59;100.00
71770;BME280;66386;52.122;5.420;2024-02-26T07:33:59;100387.03;;;4.61;100.00
71770;BME280;66386;52.122;5.420;2024-02-26T07:36:26;100398.91;;;4.62;100.00
71770;BME280;66386;52.122;5.420;2024-02-26T07:38:52;100396.31;;;4.63;100.00
71770;BME280;66386;52.122;5.420;2024-02-26T07:41:20;100402.19;;;4.65;100.00
71770;BME280;66386;52.122;5.420;2024-02-26T07:43:47;100394.56;;;4.65;100.00
71770;BME280;66386;52.122;5.420;2024-02-26T07:46:15;100399.66;;;4.65;100.00
71770;BME280;66386;52.122;5.420;2024-02-26T07:48:41;100396.25;;;4.66;100.00
71770;BME280;66386;52.122;5.420;2024-02-26T07:51:08;100409.78;;;4.68;100.00
71770;BME280;66386;52.122;5.420;2024-02-26T07:53:35;100414.88;;;4.68;100.00
71770;BME280;66386;52.122;5.420;2024-02-26T07:56:02;100417.38;;;4.70;100.00
71770;BME280;66386;52.122;5.420;2024-02-26T07:58:29;100426.72;;;4.69;100.00
71770;BME280;66386;52.122;5.420;2024-02-26T08:00:56;100430.09;;;4.70;100.00
71770;BME280;66386;52.122;5.420;2024-02-26T08:03:22;100430.94;;;4.72;100.00
71770;BME280;66386;52.122;5.420;2024-02-26T08:05:50;100439.38;;;4.74;100.00
71770;BME280;66386;52.122;5.420;2024-02-26T08:08:17;100434.25;;;4.76;100.00
71770;BME280;66386;52.122;5.420;2024-02-26T08:10:43;100435.91;;;4.78;100.00
71770;BME280;66386;52.122;5.420;2024-02-26T08:13:10;100437.63;;;4.78;100.00
71770;BME280;66386;52.122;5.420;2024-02-26T08:15:37;100441.78;;;4.80;100.00
71770;BME280;66386;52.122;5.420;2024-02-26T08:18:06;100446.03;;;4.81;100.00
71770;BME280;66386;52.122;5.420;2024-02-26T08:20:33;100442.63;;;4.82;100.00
71770;BME280;66386;52.122;5.420;2024-02-26T08:22:59;100457.03;;;4.83;100.00
71770;BME280;66386;52.122;5.420;2024-02-26T08:25:26;100454.47;;;4.85;100.00
71770;BME280;66386;52.122;5.420;2024-02-26T08:27:52;100452.75;;;4.85;100.00
71770;BME280;66386;52.122;5.420;2024-02-26T08:30:19;100451.88;;;4.86;100.00
71770;BME280;66386;52.122;5.420;2024-02-26T08:32:47;100457.00;;;4.85;100.00
71770;BME280;66386;52.122;5.420;2024-02-26T08:35:18;100454.47;;;4.85;100.00
71770;BME280;66386;52.122;5.420;2024-02-26T08:37:45;100468.03;;;4.85;100.00
71770;BME280;66386;52.122;5.420;2024-02-26T08:40:13;100465.47;;;4.85;100.00
71770;BME280;66386;52.122;5.420;2024-02-26T08:42:39;100468.84;;;4.86;100.00
71770;BME280;66386;52.122;5.420;2024-02-26T08:45:07;100472.22;;;4.88;100.00
71770;BME280;66386;52.122;5.420;2024-02-26T08:47:34;100468.81;;;4.87;100.00
71770;BME280;66386;52.122;5.420;2024-02-26T08:50:01;100471.34;;;4.89;100.00
71770;BME280;66386;52.122;5.420;2024-02-26T08:52:28;100481.47;;;4.90;100.00
71770;BME280;66386;52.122;5.420;2024-02-26T08:54:55;100486.56;;;4.92;100.00
71770;BME280;66386;52.122;5.420;2024-02-26T08:57:21;100498.38;;;4.95;100.00
71770;BME280;66386;52.122;5.420;2024-02-26T08:59:48;100495.03;;;4.93;100.00
71770;BME280;66386;52.122;5.420;2024-02-26T09:02:14;100500.97;;;4.93;100.00
71770;BME280;66386;52.122;5.420;2024-02-26T09:04:41;100500.97;;;4.93;100.00
71770;BME280;66386;52.122;5.420;2024-02-26T09:07:08;100505.22;;;4.93;100.00
71770;BME280;66386;52.122;5.420;2024-02-26T09:09:34;100499.31;;;4.92;100.00
71770;BME280;66386;52.122;5.420;2024-02-26T09:12:01;100510.31;;;4.93;100.00
71770;BME280;66386;52.122;5.420;2024-02-26T09:14:28;100508.59;;;4.93;100.00
71770;BME280;66386;52.122;5.420;2024-02-26T09:16:55;100512.00;;;4.94;100.00
71770;BME280;66386;52.122;5.420;2024-02-26T09:19:23;100518.78;;;4.93;100.00
71770;BME280;66386;52.122;5.420;2024-02-26T09:21:50;100519.69;;;4.92;100.00
71770;BME280;66386;52.122;5.420;2024-02-26T09:24:16;100510.31;;;4.93;100.00
71770;BME280;66386;52.122;5.420;2024-02-26T09:26:43;100523.91;;;4.92;100.00
71770;BME280;66386;52.122;5.420;2024-02-26T09:29:09;100529.00;;;4.92;100.00
71770;BME280;66386;52.122;5.420;2024-02-26T09:31:36;100531.59;;;4.90;100.00
71770;BME280;66386;52.122;5.420;2024-02-26T09:34:02;100532.41;;;4.90;100.00
71770;BME280;66386;52.122;5.420;2024-02-26T09:36:29;100535.84;;;4.89;100.00
71770;BME280;66386;52.122;5.420;2024-02-26T09:38:56;100529.91;;;4.89;100.00
71770;BME280;66386;52.122;5.420;2024-02-26T09:41:30;100544.25;;;4.93;100.00
71770;BME280;66386;52.122;5.420;2024-02-26T09:43:57;100553.63;;;4.93;100.00
71770;BME280;66386;52.122;5.420;2024-02-26T09:46:26;100548.53;;;4.93;100.00
71770;BME280;66386;52.122;5.420;2024-02-26T09:48:53;100551.13;;;4.89;100.00
71770;BME280;66386;52.122;5.420;2024-02-26T09:51:22;100556.22;;;4.89;100.00
71770;BME280;66386;52.122;5.420;2024-02-26T09:53:52;100550.25;;;4.90;100.00
71770;BME280;66386;52.122;5.420;2024-02-26T09:56:20;100555.34;;;4.92;100.00
71770;BME280;66386;52.122;5.420;2024-02-26T09:58:48;100562.97;;;4.92;100.00
71770;BME280;66386;52.122;5.420;2024-02-26T10:01:20;100570.59;;;4.94;100.00
71770;BME280;66386;52.122;5.420;2024-02-26T10:03:55;100578.22;;;4.94;100.00
71770;BME280;66386;52.122;5.420;2024-02-26T10:06:26;100574.81;;;4.93;100.00
71770;BME280;66386;52.122;5.420;2024-02-26T10:08:53;100570.59;;;4.94;100.00
71770;BME280;66386;52.122;5.420;2024-02-26T10:11:24;100581.59;;;4.94;100.00
71770;BME280;66386;52.122;5.420;2024-02-26T10:13:51;100573.13;;;4.94;100.00
71770;BME280;66386;52.122;5.420;2024-02-26T10:16:18;100577.41;;;4.92;100.00
71770;BME280;66386;52.122;5.420;2024-02-26T10:18:54;100589.28;;;4.93;100.00
71770;BME280;66386;52.122;5.420;2024-02-26T10:21:25;100590.09;;;4.93;100.00
71770;BME280;66386;52.122;5.420;2024-02-26T10:23:52;100597.69;;;4.96;100.00
71770;BME280;66386;52.122;5.420;2024-02-26T10:26:19;100598.53;;;4.97;100.00
71770;BME280;66386;52.122;5.420;2024-02-26T10:28:46;100601.94;;;4.96;100.00
71770;BME280;66386;52.122;5.420;2024-02-26T10:31:18;100608.69;;;4.98;100.00
71770;BME280;66386;52.122;5.420;2024-02-26T10:33:45;100623.09;;;4.99;100.00
71770;BME280;66386;52.122;5.420;2024-02-26T10:36:11;100615.44;;;4.99;100.00
71770;BME280;66386;52.122;5.420;2024-02-26T10:38:38;100626.47;;;5.01;100.00
71770;BME280;66386;52.122;5.420;2024-02-26T10:41:13;100632.38;;;5.03;100.00
71770;BME280;66386;52.122;5.420;2024-02-26T10:43:39;100634.03;;;5.06;100.00
71770;BME280;66386;52.122;5.420;2024-02-26T10:46:07;100636.53;;;5.09;100.00
71770;BME280;66386;52.122;5.420;2024-02-26T10:48:34;100641.63;;;5.09;100.00
71770;BME280;66386;52.122;5.420;2024-02-26T10:51:02;100642.44;;;5.11;100.00
71770;BME280;66386;52.122;5.420;2024-02-26T10:53:29;100648.34;;;5.13;100.00
71770;BME280;66386;52.122;5.420;2024-02-26T10:56:01;100647.50;;;5.14;100.00
71770;BME280;66386;52.122;5.420;2024-02-26T10:58:28;100657.63;;;5.17;100.00
71770;BME280;66386;52.122;5.420;2024-02-26T11:00:56;100660.09;;;5.22;100.00
71770;BME280;66386;52.122;5.420;2024-02-26T11:03:25;100667.72;;;5.22;100.00
71770;BME280;66386;52.122;5.420;2024-02-26T11:05:52;100666.81;;;5.26;100.00
71770;BME280;66386;52.122;5.420;2024-02-26T11:08:20;100671.84;;;5.29;100.00
71770;BME280;66386;52.122;5.420;2024-02-26T11:10:53;100671.03;;;5.29;100.00
71770;BME280;66386;52.122;5.420;2024-02-26T11:13:23;100671.06;;;5.27;100.00
71770;BME280;66386;52.122;5.420;2024-02-26T11:15:54;100675.22;;;5.30;100.00
71770;BME280;66386;52.122;5.420;2024-02-26T11:18:22;100676.09;;;5.30;100.00
71770;BME280;66386;52.122;5.420;2024-02-26T11:20:50;100685.41;;;5.30;100.00
71770;BME280;66386;52.122;5.420;2024-02-26T11:23:17;100677.72;;;5.33;100.00
71770;BME280;66386;52.122;5.420;2024-02-26T11:25:44;100682.81;;;5.33;100.00
71770;BME280;66386;52.122;5.420;2024-02-26T11:28:14;100685.38;;;5.33;100.00
71770;BME280;66386;52.122;5.420;2024-02-26T11:30:45;100693.03;;;5.31;100.00
71770;BME280;66386;52.122;5.420;2024-02-26T11:33:14;100693.91;;;5.32;100.00
71770;BME280;66386;52.122;5.420;2024-02-26T11:35:41;100696.44;;;5.32;100.00
71770;BME280;66386;52.122;5.420;2024-02-26T11:38:17;100702.34;;;5.34;100.00
71770;BME280;66386;52.122;5.420;2024-02-26T11:40:44;100702.41;;;5.31;100.00
71770;BME280;66386;52.122;5.420;2024-02-26T11:43:11;100704.09;;;5.32;100.00
71770;BME280;66386;52.122;5.420;2024-02-26T11:48:10;100713.34;;;5.36;100.00
71770;BME280;66386;52.122;5.420;2024-02-26T11:50:41;100713.38;;;5.34;100.00
71770;BME280;66386;52.122;5.420;2024-02-26T11:53:28;100715.94;;;5.33;100.00
71770;BME280;66386;52.122;5.420;2024-02-26T11:56:20;100720.16;;;5.35;100.00
71770;BME280;66386;52.122;5.420;2024-02-26T11:58:48;100724.34;;;5.39;100.00
71770;BME280;66386;52.122;5.420;2024-02-26T12:04:06;100727.63;;;5.46;100.00
71770;BME280;66386;52.122;5.420;2024-02-26T12:06:41;100730.09;;;5.51;100.00
71770;BME280;66386;52.122;5.420;2024-02-26T12:09:08;100743.69;;;5.50;100.00
71770;BME280;66386;52.122;5.420;2024-02-26T12:11:39;100735.25;;;5.48;100.00
71770;BME280;66386;52.122;5.420;2024-02-26T12:14:08;100741.97;;;5.50;100.00
71770;BME280;66386;52.122;5.420;2024-02-26T12:16:39;100744.47;;;5.55;100.00
71770;BME280;66386;52.122;5.420;2024-02-26T12:19:07;100756.38;;;5.53;100.00
71770;BME280;66386;52.122;5.420;2024-02-26T12:21:35;100747.94;;;5.51;100.00
71770;BME280;66386;52.122;5.420;2024-02-26T12:24:13;100753.84;;;5.53;100.00
71770;BME280;66386;52.122;5.420;2024-02-26T12:26:40;100753.03;;;5.51;100.00
71770;BME280;66386;52.122;5.420;2024-02-26T12:29:08;100759.00;;;5.50;100.00
71770;BME280;66386;52.122;5.420;2024-02-26T12:31:34;100761.59;;;5.47;100.00
71770;BME280;66386;52.122;5.420;2024-02-26T12:34:04;100762.44;;;5.47;100.00
71770;BME280;66386;52.122;5.420;2024-02-26T12:36:32;100771.78;;;5.47;100.00
71770;BME280;66386;52.122;5.420;2024-02-26T12:39:01;100764.06;;;5.51;100.00
71770;BME280;66386;52.122;5.420;2024-02-26T12:41:28;100771.63;;;5.56;100.00
71770;BME280;66386;52.122;5.420;2024-02-26T12:43:58;100779.19;;;5.60;100.00
71770;BME280;66386;52.122;5.420;2024-02-26T12:46:24;100775.00;;;5.59;100.00
71770;BME280;66386;52.122;5.420;2024-02-26T12:48:51;100776.66;;;5.59;100.00
71770;BME280;66386;52.122;5.420;2024-02-26T12:51:18;100775.00;;;5.58;100.00
71770;BME280;66386;52.122;5.420;2024-02-26T12:53:45;100784.31;;;5.59;100.00
71770;BME280;66386;52.122;5.420;2024-02-26T12:56:12;100781.75;;;5.60;100.00